Time;durP1;ratioP1;P1;durP2;ratioP2;P2;SDS_P1;SDS_P2;PMS_P1;PMS_P2;Temp;Humidity;BMP_temperature;BMP_pressure;BME280_temperature;BME280_humidity;BME280_pressure;Samples;Min_cycle;Max_cycle;Signal;HPM_P1;HPM_P2
2021/10/19 00:00:44;;;;;;;17.87;15.97;;;;;;;9.17;75.15;96472.16;6153619;23;20514;-85
2021/10/19 00:03:11;;;;;;;17.27;15.43;;;;;;;9.18;75.37;96471.22;6152703;23;20277;-85
2021/10/19 00:05:38;;;;;;;19.70;17.50;;;;;;;9.14;75.36;96465.53;6153817;23;20171;-83
2021/10/19 00:08:05;;;;;;;17.27;15.33;;;;;;;9.14;75.04;96464.72;6153779;23;20253;-86
2021/10/19 00:10:31;;;;;;;17.33;15.43;;;;;;;9.12;75.74;96462.31;6152452;23;20214;-87
2021/10/19 00:12:59;;;;;;;20.67;16.53;;;;;;;9.16;76.00;96457.69;6153114;23;20201;-86
2021/10/19 00:15:26;;;;;;;17.37;15.50;;;;;;;9.25;75.63;96452.47;6153249;23;20497;-85
2021/10/19 00:17:55;;;;;;;17.27;15.03;;;;;;;9.37;75.83;96459.97;6153560;23;20175;-85
2021/10/19 00:20:21;;;;;;;17.73;15.40;;;;;;;9.48;76.02;96457.16;6152797;23;20194;-86
2021/10/19 00:22:48;;;;;;;16.13;14.43;;;;;;;9.46;76.87;96449.59;6152645;23;20195;-85
2021/10/19 00:25:17;;;;;;;16.60;14.90;;;;;;;9.40;77.31;96452.78;6152434;23;20199;-85
2021/10/19 00:27:44;;;;;;;16.17;14.47;;;;;;;9.51;76.94;96447.41;6152604;23;20182;-85
2021/10/19 00:30:13;;;;;;;15.17;13.57;;;;;;;9.62;77.01;96449.72;6153066;23;20179;-85
2021/10/19 00:32:41;;;;;;;16.97;14.07;;;;;;;9.69;76.27;96434.53;6152378;23;20532;-85
2021/10/19 00:35:08;;;;;;;16.70;14.07;;;;;;;9.67;76.34;96432.09;6152542;23;20182;-85
2021/10/19 00:37:35;;;;;;;16.00;13.63;;;;;;;9.69;76.80;96431.94;6153348;23;20206;-85
2021/10/19 00:40:02;;;;;;;13.97;11.77;;;;;;;9.63;77.29;96433.34;6153145;23;20616;-86
2021/10/19 00:42:31;;;;;;;13.00;11.70;;;;;;;9.65;77.59;96428.88;6153120;23;20199;-86
2021/10/19 00:44:57;;;;;;;13.37;12.07;;;;;;;9.63;77.79;96429.97;6152868;23;20175;-85
2021/10/19 00:47:25;;;;;;;12.67;11.37;;;;;;;9.69;77.64;96429.38;6153035;23;20171;-85
2021/10/19 00:49:51;;;;;;;13.13;11.80;;;;;;;9.71;77.05;96432.59;6152615;23;20284;-85
2021/10/19 00:52:19;;;;;;;13.47;11.40;;;;;;;9.80;77.02;96426.56;6152995;23;20205;-85
2021/10/19 00:54:46;;;;;;;13.20;10.60;;;;;;;9.80;76.76;96429.16;6151934;23;20520;-85
2021/10/19 00:57:14;;;;;;;11.60;10.40;;;;;;;9.89;76.85;96435.94;6152563;23;20202;-85
2021/10/19 00:59:43;;;;;;;11.07;9.93;;;;;;;9.95;76.54;96434.53;6152515;23;20633;-86
2021/10/19 01:02:10;;;;;;;10.60;9.37;;;;;;;10.03;76.37;96429.44;6152313;23;20230;-85
2021/10/19 01:04:38;;;;;;;11.03;9.93;;;;;;;10.03;76.02;96432.81;6151953;23;20175;-86
2021/10/19 01:07:05;;;;;;;9.93;8.73;;;;;;;9.98;76.74;96432.47;6152723;23;20177;-86
2021/10/19 01:09:31;;;;;;;10.07;8.90;;;;;;;10.03;75.95;96424.28;6122287;23;20773;-85
2021/10/19 01:11:58;;;;;;;10.17;8.60;;;;;;;9.98;75.83;96429.09;6144099;23;20175;-87
2021/10/19 01:14:24;;;;;;;9.00;8.10;;;;;;;10.00;76.07;96428.00;6153551;23;20182;-85
2021/10/19 01:16:51;;;;;;;8.83;7.97;;;;;;;9.99;75.75;96423.00;6154316;23;20202;-86
2021/10/19 01:19:21;;;;;;;8.67;7.77;;;;;;;10.04;75.87;96424.13;6153419;23;20186;-85
2021/10/19 01:21:52;;;;;;;8.90;7.53;;;;;;;10.08;75.82;96423.84;6154873;23;20194;-86
2021/10/19 01:24:21;;;;;;;7.87;7.07;;;;;;;10.13;75.80;96427.56;6153221;23;20209;-86
2021/10/19 01:26:48;;;;;;;7.07;6.33;;;;;;;10.14;75.20;96426.63;6155044;23;20741;-84
2021/10/19 01:29:15;;;;;;;6.73;6.13;;;;;;;10.17;74.98;96421.16;6158121;23;20250;-83
2021/10/19 01:31:46;;;;;;;7.57;6.87;;;;;;;10.17;75.22;96431.47;6156611;23;20207;-86
2021/10/19 01:34:12;;;;;;;7.57;6.80;;;;;;;10.23;74.71;96424.91;6153139;23;20238;-85
2021/10/19 01:36:39;;;;;;;8.07;7.03;;;;;;;10.19;74.42;96421.84;6153948;23;20199;-85
2021/10/19 01:39:07;;;;;;;9.97;8.20;;;;;;;10.10;73.45;96425.28;6153682;23;20637;-86
2021/10/19 01:41:34;;;;;;;8.90;8.00;;;;;;;10.05;73.94;96420.59;6153530;23;20194;-86
2021/10/19 01:47:56;;;;;;;8.93;8.03;;;;;;;9.79;73.47;96431.88;6084697;23;20207;-85
2021/10/19 01:57:26;;;;;;;9.00;8.10;;;;;;;9.57;73.89;96417.72;6111114;23;20282;-85
2021/10/19 02:00:34;;;;;;;9.70;8.20;;;;;;;9.40;73.95;96416.81;6032458;23;20225;-86
2021/10/19 02:06:29;;;;;;;8.83;7.93;;;;;;;9.29;74.83;96411.88;6062047;23;20551;-85
2021/10/19 02:09:51;;;;;;;;;;;;;;;;;;;;;
2021/10/19 02:12:31;;;;;;;8.10;7.30;;;;;;;9.27;74.41;96411.22;6151900;23;20171;-85
2021/10/19 02:15:37;;;;;;;8.90;7.30;;;;;;;9.23;74.20;96409.91;6151592;23;20594;-85
2021/10/19 02:24:40;;;;;;;8.07;7.17;;;;;;;9.26;74.59;96404.44;5975868;23;20183;-85
2021/10/19 02:27:23;;;;;;;7.60;6.80;;;;;;;9.28;74.79;96407.69;6028992;23;20174;-85
2021/10/19 02:30:32;;;;;;;7.20;6.50;;;;;;;9.32;74.66;96396.97;6152319;23;20178;-85
2021/10/19 02:36:42;;;;;;;8.20;7.23;;;;;;;9.17;74.78;96389.94;6120910;23;20253;-85
2021/10/19 02:39:43;;;;;;;6.20;5.60;;;;;;;9.10;74.81;96382.00;6142592;23;20277;-86
2021/10/19 02:48:26;;;;;;;5.60;5.03;;;;;;;9.28;75.20;96369.94;6120555;23;20187;-85
2021/10/19 02:54:51;;;;;;;6.67;5.50;;;;;;;9.37;74.89;96373.41;6147073;23;20199;-85
2021/10/19 03:00:54;;;;;;;6.73;5.10;;;;;;;9.43;74.69;96365.06;6149463;23;20179;-85
2021/10/19 03:03:52;;;;;;;5.10;4.50;;;;;;;9.44;74.47;96360.75;6151172;23;20820;-85
2021/10/19 03:07:12;;;;;;;6.10;5.30;;;;;;;9.29;74.10;96350.19;6152061;23;20173;-85
2021/10/19 03:10:16;;;;;;;6.43;4.80;;;;;;;9.15;74.67;96350.75;6118881;23;20207;-86
2021/10/19 03:18:49;;;;;;;4.90;4.50;;;;;;;9.25;74.80;96372.81;6150620;23;20198;-85
2021/10/19 03:21:34;;;;;;;5.73;4.80;;;;;;;9.27;75.01;96380.38;6151667;23;20697;-85
2021/10/19 03:27:33;;;;;;;4.83;4.33;;;;;;;9.27;74.44;96378.63;6148760;23;20174;-85
2021/10/19 03:30:24;;;;;;;4.77;4.37;;;;;;;9.20;74.71;96382.75;6151698;23;20174;-85
2021/10/19 03:33:19;;;;;;;5.37;4.63;;;;;;;9.22;74.66;96385.97;6152162;23;20163;-85
2021/10/19 03:36:40;;;;;;;5.27;4.77;;;;;;;9.14;75.05;96385.91;6151234;23;20179;-84
2021/10/19 03:39:43;;;;;;;4.97;4.47;;;;;;;9.11;75.31;96395.66;6032218;23;20177;-85
2021/10/19 03:48:44;;;;;;;4.67;4.27;;;;;;;9.17;74.90;96390.75;6058304;23;20264;-85
2021/10/19 03:51:42;;;;;;;4.60;4.20;;;;;;;9.21;74.80;96388.69;6143042;23;20201;-85
2021/10/19 03:54:10;;;;;;;4.60;4.03;;;;;;;9.20;75.25;96389.66;6151014;23;20249;-85
2021/10/19 03:56:40;;;;;;;3.77;3.47;;;;;;;9.25;74.86;96387.41;6151267;23;20799;-85
2021/10/19 03:59:08;;;;;;;4.40;4.00;;;;;;;9.12;74.58;96381.84;6151161;23;20175;-85
2021/10/19 04:01:34;;;;;;;4.03;3.63;;;;;;;8.91;75.10;96387.28;6152051;23;20182;-85
2021/10/19 04:04:01;;;;;;;3.97;3.57;;;;;;;8.96;75.62;96385.09;6151019;23;20198;-85
2021/10/19 04:06:28;;;;;;;4.33;3.90;;;;;;;9.06;75.54;96387.56;6151352;23;20186;-85
2021/10/19 04:08:55;;;;;;;3.90;3.50;;;;;;;9.04;75.78;96394.66;6151031;23;20281;-83
2021/10/19 04:11:21;;;;;;;9.37;4.03;;;;;;;9.55;92.07;96399.06;6152471;23;20187;-82
2021/10/19 04:13:48;;;;;;;5.20;3.47;;;;;;;10.05;88.00;96396.63;6152633;23;20232;-81
2021/10/19 04:16:15;;;;;;;4.03;3.63;;;;;;;10.18;75.00;96393.66;6151404;23;20181;-85
2021/10/19 04:18:42;;;;;;;3.63;3.33;;;;;;;10.01;72.47;96409.00;6151641;23;20201;-85
2021/10/19 04:21:16;;;;;;;4.57;3.43;;;;;;;9.83;71.98;96417.72;6151202;23;20666;-85
2021/10/19 04:23:43;;;;;;;3.67;3.27;;;;;;;9.58;72.62;96422.72;6150550;23;20201;-85
2021/10/19 04:26:09;;;;;;;3.60;3.30;;;;;;;9.45;73.32;96431.75;6151406;23;20256;-86
2021/10/19 04:28:36;;;;;;;3.10;2.80;;;;;;;9.37;73.47;96439.41;6151265;23;20175;-86
2021/10/19 04:31:02;;;;;;;4.60;3.50;;;;;;;9.24;73.50;96437.19;6151379;23;20179;-86
2021/10/19 04:33:30;;;;;;;3.50;3.20;;;;;;;9.10;73.74;96443.66;6151081;23;20209;-86
2021/10/19 04:35:56;;;;;;;3.50;3.20;;;;;;;8.90;74.33;96448.13;6150353;23;20189;-86
2021/10/19 04:38:23;;;;;;;3.87;3.33;;;;;;;8.77;75.64;96449.41;6151253;23;20199;-85
2021/10/19 04:40:55;;;;;;;3.67;3.30;;;;;;;8.67;75.96;96431.50;6151413;23;20179;-86
2021/10/19 04:43:23;;;;;;;3.70;3.40;;;;;;;8.72;75.75;96433.63;6150805;23;20201;-85
2021/10/19 04:45:53;;;;;;;4.13;3.60;;;;;;;8.80;76.28;96436.31;6151613;23;20189;-86
2021/10/19 04:48:23;;;;;;;3.57;3.27;;;;;;;8.73;76.11;96433.50;6152957;23;20170;-85
2021/10/19 04:50:51;;;;;;;3.63;3.33;;;;;;;8.75;76.11;96430.78;6148414;23;20700;-85
2021/10/19 04:53:36;;;;;;;4.10;3.80;;;;;;;8.86;76.20;96428.81;6149908;23;20194;-90
2021/10/19 04:58:59;;;;;;;4.80;3.70;;;;;;;8.60;76.39;96417.63;6151373;23;20159;-85
2021/10/19 05:01:29;;;;;;;4.17;3.77;;;;;;;8.60;77.03;96417.63;6150823;23;20556;-85
2021/10/19 05:03:56;;;;;;;3.70;3.40;;;;;;;8.70;76.86;96422.69;6151202;23;20195;-84
2021/10/19 05:24:13;;;;;;;4.30;3.90;;;;;;;9.24;75.58;96411.50;5974712;24;20573;-87
2021/10/19 05:30:36;;;;;;;;;;;;;;;;;;;;;
2021/10/19 05:33:25;;;;;;;3.67;3.33;;;;;;;9.35;76.01;96411.28;6061139;23;20184;-87
2021/10/19 05:39:46;;;;;;;3.97;3.33;;;;;;;9.54;75.49;96421.41;5995599;23;20627;-87
2021/10/19 05:43:03;;;;;;;4.07;3.60;;;;;;;9.59;75.36;96432.06;6032441;23;20674;-87
2021/10/19 05:45:47;;;;;;;3.70;3.10;;;;;;;9.66;75.69;96434.81;6031924;23;20624;-87
2021/10/19 05:51:32;;;;;;;4.90;3.37;;;;;;;9.76;75.89;96417.53;6151615;23;20175;-87
2021/10/19 05:54:03;;;;;;;4.33;3.40;;;;;;;9.80;75.55;96418.88;6151079;23;20221;-87
2021/10/19 05:56:38;;;;;;;3.70;3.30;;;;;;;9.76;76.02;96409.81;6151846;23;20171;-87
2021/10/19 05:59:49;;;;;;;4.83;3.50;;;;;;;9.76;75.42;96409.03;6150870;23;20233;-87
2021/10/19 06:51:46;;;;;;;3.37;2.73;;;;;;;10.63;72.28;96416.53;5881414;23;20224;-85
2021/10/19 06:57:30;;;;;;;6.50;2.73;;;;;;;10.73;71.69;96415.47;6029866;23;20181;-85
2021/10/19 07:00:16;;;;;;;3.73;2.50;;;;;;;10.81;71.84;96426.72;6039859;23;20225;-85
2021/10/19 07:09:21;;;;;;;2.60;2.33;;;;;;;10.98;70.99;96436.13;6004204;23;20229;-86
2021/10/19 07:12:03;;;;;;;;;;;;;;;;;;;;;
2021/10/19 07:14:43;;;;;;;3.50;2.40;;;;;;;11.06;70.30;96436.16;6138659;23;20734;-86
2021/10/19 07:17:12;;;;;;;2.43;2.23;;;;;;;11.13;70.76;96442.28;6150716;23;20159;-85
2021/10/19 07:20:08;;;;;;;2.93;2.33;;;;;;;11.19;71.21;96441.63;6151534;23;20171;-85
2021/10/19 07:22:37;;;;;;;4.10;2.20;;;;;;;11.28;70.35;96439.88;6150427;23;20234;-85
2021/10/19 07:25:25;;;;;;;2.70;2.43;;;;;;;11.29;70.22;96436.34;6151030;23;20215;-86
2021/10/19 07:28:14;;;;;;;3.50;2.40;;;;;;;11.28;70.34;96434.72;6150390;23;20278;-86
2021/10/19 07:30:46;;;;;;;3.17;2.30;;;;;;;11.32;70.56;96431.69;6143333;23;20687;-85
2021/10/19 07:33:37;;;;;;;2.63;2.43;;;;;;;11.38;70.03;96432.78;6151598;23;20476;-85
2021/10/19 07:39:18;;;;;;;3.97;2.70;;;;;;;11.41;70.14;96435.84;6069879;23;20253;-86
2021/10/19 07:41:53;;;;;;;7.07;2.53;;;;;;;11.42;69.95;96431.50;6152006;23;20258;-85
2021/10/19 07:45:09;;;;;;;2.83;2.40;;;;;;;11.41;69.49;96438.44;6151101;23;20742;-86
2021/10/19 07:47:46;;;;;;;3.57;2.33;;;;;;;11.51;69.78;96435.72;6032119;23;20181;-85
2021/10/19 07:50:23;;;;;;;3.63;2.73;;;;;;;11.60;69.88;96431.34;6143449;23;20675;-85
2021/10/19 07:53:24;;;;;;;4.43;2.60;;;;;;;11.59;68.74;96430.53;6152089;23;20242;-86
2021/10/19 08:02:41;;;;;;;3.37;2.50;;;;;;;11.71;68.72;96451.69;6126568;23;20329;-86
2021/10/19 08:05:34;;;;;;;3.03;2.40;;;;;;;11.74;68.76;96454.72;6151229;23;20210;-86
2021/10/19 08:08:17;;;;;;;2.70;2.50;;;;;;;11.83;69.42;96468.47;6145543;23;20205;-86
2021/10/19 08:18:01;;;;;;;3.63;2.53;;;;;;;12.09;68.27;96476.03;5899772;24;20308;-85
2021/10/19 08:21:22;;;;;;;3.00;2.17;;;;;;;12.19;68.81;96476.63;6002803;23;20178;-86
2021/10/19 08:23:53;;;;;;;5.20;2.40;;;;;;;12.25;68.77;96476.00;6018307;23;20209;-86
2021/10/19 08:35:22;;;;;;;2.70;2.30;;;;;;;12.36;68.80;96478.22;6143859;23;20189;-87
2021/10/19 08:41:24;;;;;;;6.87;3.20;;;;;;;12.48;69.09;96478.69;6149821;23;20175;-86
2021/10/19 08:50:16;;;;;;;5.90;2.80;;;;;;;12.60;68.90;96482.50;6130124;23;20182;-86
2021/10/19 08:56:17;;;;;;;3.87;2.73;;;;;;;12.67;69.50;96488.63;6133926;23;20699;-86
2021/10/19 08:59:00;;;;;;;5.17;2.70;;;;;;;12.72;70.08;96486.31;6150858;23;20249;-86
2021/10/19 09:01:50;;;;;;;5.00;3.00;;;;;;;12.74;69.44;96488.75;6151288;23;20181;-86
2021/10/19 09:04:24;;;;;;;3.40;2.37;;;;;;;12.75;70.08;96482.59;6151123;23;20197;-85
2021/10/19 09:12:37;;;;;;;5.10;2.73;;;;;;;12.80;70.13;96475.16;6148347;23;20162;-85
2021/10/19 09:18:29;;;;;;;;;;;;;;;;;;;;;
2021/10/19 09:21:23;;;;;;;3.53;2.43;;;;;;;12.91;68.97;96481.72;6111081;23;20259;-87
2021/10/19 09:23:55;;;;;;;4.83;2.40;;;;;;;12.96;68.97;96489.78;6119455;23;20195;-86
2021/10/19 09:26:37;;;;;;;3.40;2.10;;;;;;;12.97;68.07;96486.22;6121732;23;20486;-87
2021/10/19 09:29:33;;;;;;;2.70;2.20;;;;;;;13.01;67.66;96484.94;6121329;23;20259;-87
2021/10/19 09:32:12;;;;;;;3.10;2.00;;;;;;;13.02;67.70;96479.59;6123204;23;20230;-86
2021/10/19 09:34:39;;;;;;;4.97;2.20;;;;;;;13.10;68.26;96483.91;6122966;23;20200;-86
2021/10/19 09:37:37;;;;;;;2.77;2.57;;;;;;;13.13;68.76;96481.78;6123183;23;20175;-86
2021/10/19 09:40:23;;;;;;;4.90;2.43;;;;;;;13.15;68.90;96481.66;6123538;23;20194;-86
2021/10/19 09:52:46;;;;;;;3.17;2.30;;;;;;;13.32;67.81;96495.28;6121106;23;20695;-86
2021/10/19 10:02:22;;;;;;;2.87;2.17;;;;;;;13.45;68.07;96493.75;6120313;23;20681;-85
2021/10/19 10:05:32;;;;;;;2.80;2.33;;;;;;;13.48;68.50;96488.22;5975460;23;20206;-86
2021/10/19 10:08:45;;;;;;;2.77;2.53;;;;;;;13.53;69.08;96482.53;5941222;23;20576;-86
2021/10/19 10:11:25;;;;;;;4.70;2.60;;;;;;;13.55;70.41;96482.38;6033264;23;20193;-86
2021/10/19 10:18:28;;;;;;;4.70;2.47;;;;;;;13.65;71.97;96488.94;5992815;23;20173;-86
2021/10/19 10:27:36;;;;;;;4.47;2.67;;;;;;;13.69;74.70;96482.41;6089696;23;20172;-86
2021/10/19 10:30:23;;;;;;;4.27;2.40;;;;;;;13.70;74.28;96488.41;6123528;23;20164;-86
2021/10/19 10:35:50;;;;;;;3.57;2.67;;;;;;;13.76;75.37;96485.13;6080710;23;20200;-85
2021/10/19 10:38:29;;;;;;;3.57;2.77;;;;;;;13.83;76.03;96483.47;6123293;23;20172;-85
2021/10/19 10:47:37;;;;;;;;;;;;;;;;;;;;;
2021/10/19 10:58:53;;;;;;;3.73;2.23;;;;;;;14.13;69.93;96451.44;6095146;23;20206;-86
2021/10/19 11:01:39;;;;;;;2.10;1.90;;;;;;;14.20;70.41;96456.75;6122973;23;20250;-85
2021/10/19 11:04:21;;;;;;;2.67;2.20;;;;;;;14.26;69.81;96450.81;6122573;23;20254;-86
2021/10/19 11:07:34;;;;;;;3.37;2.80;;;;;;;14.29;71.57;96452.25;6123216;23;20176;-85
2021/10/19 11:10:22;;;;;;;3.50;2.50;;;;;;;14.30;71.55;96454.69;6085777;23;20208;-85
2021/10/19 11:13:07;;;;;;;2.50;2.30;;;;;;;14.32;72.99;96465.66;6123334;23;20163;-85
2021/10/19 11:15:50;;;;;;;5.50;2.90;;;;;;;14.35;72.36;96451.56;6122456;23;20179;-85
2021/10/19 11:18:21;;;;;;;3.70;2.30;;;;;;;14.36;72.69;96453.97;6122452;23;20234;-85
2021/10/19 11:20:58;;;;;;;3.53;2.30;;;;;;;14.41;72.12;96453.47;6122620;23;20175;-86
2021/10/19 11:23:27;;;;;;;2.83;2.23;;;;;;;14.43;72.61;96446.34;6122325;23;20701;-86
2021/10/19 11:26:14;;;;;;;3.47;2.70;;;;;;;14.44;71.58;96448.72;6122739;23;20175;-85
2021/10/19 11:28:42;;;;;;;2.73;2.30;;;;;;;14.49;71.20;96454.16;6102077;23;20175;-86
2021/10/19 11:31:24;;;;;;;2.97;2.40;;;;;;;14.55;71.15;96450.06;6122160;23;20180;-86
2021/10/19 11:37:11;;;;;;;3.63;2.97;;;;;;;14.60;69.23;96439.16;6122214;23;20633;-86
2021/10/19 11:39:56;;;;;;;4.53;2.50;;;;;;;14.67;69.80;96445.22;6124971;23;20206;-86
2021/10/19 11:42:30;;;;;;;5.10;2.57;;;;;;;14.69;69.94;96440.66;6123407;23;20830;-87
2021/10/19 11:45:01;;;;;;;2.30;2.10;;;;;;;14.76;69.56;96433.78;6123319;23;20392;-86
2021/10/19 11:47:46;;;;;;;2.57;2.30;;;;;;;14.84;68.93;96442.25;6122834;23;20160;-87
2021/10/19 11:50:39;;;;;;;2.73;2.33;;;;;;;14.91;69.95;96434.56;6123090;23;20191;-87
2021/10/19 11:53:08;;;;;;;2.70;2.13;;;;;;;14.95;69.74;96432.41;6122036;23;20243;-86
2021/10/19 11:55:43;;;;;;;3.30;2.30;;;;;;;15.00;68.82;96424.88;6122186;23;20254;-87
2021/10/19 11:58:30;;;;;;;2.43;2.20;;;;;;;15.02;68.41;96422.88;6123943;23;20179;-86
2021/10/19 12:01:27;;;;;;;2.47;2.20;;;;;;;15.02;68.14;96428.06;6123149;23;20175;-87
2021/10/19 12:04:48;;;;;;;2.73;2.00;;;;;;;15.05;66.21;96420.72;6121682;23;20270;-88
2021/10/19 12:11:14;;;;;;;3.80;2.20;;;;;;;15.11;67.54;96421.81;5994517;23;20294;-87
2021/10/19 12:14:05;;;;;;;2.23;2.00;;;;;;;15.11;65.36;96420.00;6116185;23;20243;-86
2021/10/19 12:16:36;;;;;;;2.23;2.03;;;;;;;15.14;65.25;96429.22;6121760;23;20243;-87
2021/10/19 12:19:19;;;;;;;2.27;1.90;;;;;;;15.18;64.16;96433.88;6121819;23;20222;-87
2021/10/19 12:22:09;;;;;;;;;;;;;;;;;;;;;
2021/10/19 12:24:47;;;;;;;5.30;2.10;;;;;;;15.21;64.22;96417.91;6121800;23;20321;-87
2021/10/19 12:27:20;;;;;;;5.63;2.42;;;;;;;15.26;64.97;96425.13;6122385;23;20195;-86
2021/10/19 12:30:28;;;;;;;2.55;1.92;;;;;;;15.26;64.89;96411.34;6123460;23;20175;-86
2021/10/19 12:33:29;;;;;;;5.13;2.15;;;;;;;15.24;63.83;96410.75;6093715;23;20186;-87
2021/10/19 12:36:00;;;;;;;2.40;2.20;;;;;;;15.21;64.36;96410.13;6122605;23;20175;-87
2021/10/19 12:38:48;;;;;;;3.40;2.17;;;;;;;15.22;65.06;96403.13;6122203;23;20230;-87
2021/10/19 12:41:27;;;;;;;3.10;2.23;;;;;;;15.24;65.08;96410.75;6122266;23;20276;-87
2021/10/19 12:43:58;;;;;;;5.83;3.17;;;;;;;15.29;66.18;96405.81;6121635;23;20195;-87
2021/10/19 12:49:56;;;;;;;3.07;2.43;;;;;;;15.31;64.69;96403.84;6095361;23;20506;-87
2021/10/19 12:52:37;;;;;;;2.97;2.70;;;;;;;15.25;63.56;96407.16;6122573;23;20197;-87
2021/10/19 12:55:28;;;;;;;3.97;2.60;;;;;;;15.29;64.81;96398.03;6122431;23;20687;-86
2021/10/19 13:00:51;;;;;;;2.78;2.40;;;;;;;15.30;65.26;96413.41;6113679;23;20278;-87
2021/10/19 13:03:40;;;;;;;5.10;3.03;;;;;;;15.36;65.62;96417.06;6124644;23;20176;-87
2021/10/19 13:06:17;;;;;;;3.75;2.80;;;;;;;15.36;65.45;96412.69;6126098;23;20231;-87
2021/10/19 13:08:50;;;;;;;4.40;2.90;;;;;;;15.38;64.79;96412.50;6124600;23;20207;-87
2021/10/19 13:11:31;;;;;;;4.63;2.65;;;;;;;15.34;64.60;96403.47;6125811;23;20172;-87
2021/10/19 13:14:05;;;;;;;4.35;2.95;;;;;;;15.41;65.28;96401.72;6125802;23;20506;-87
2021/10/19 13:16:36;;;;;;;3.92;2.90;;;;;;;15.42;66.38;96398.94;6126435;23;20198;-87
2021/10/19 13:19:45;;;;;;;4.07;2.80;;;;;;;15.42;64.64;96398.13;6126883;23;20234;-86
2021/10/19 13:22:52;;;;;;;3.20;2.70;;;;;;;15.38;64.89;96396.94;6118960;23;20179;-87
2021/10/19 13:26:34;;;;;;;2.75;2.47;;;;;;;15.34;64.85;96396.50;6123517;23;20195;-87
2021/10/19 13:29:03;;;;;;;2.78;2.55;;;;;;;15.34;65.41;96388.69;6123841;23;20560;-86
2021/10/19 13:31:39;;;;;;;3.80;2.70;;;;;;;15.31;66.00;96385.66;6125168;23;20235;-86
2021/10/19 13:34:07;;;;;;;4.35;2.65;;;;;;;15.25;64.11;96379.41;6124623;23;20211;-86
2021/10/19 13:36:36;;;;;;;3.25;2.40;;;;;;;15.22;63.90;96377.19;6123661;23;20481;-86
2021/10/19 13:39:15;;;;;;;4.63;2.67;;;;;;;15.26;63.92;96375.84;6124341;23;20167;-87
2021/10/19 13:42:17;;;;;;;3.38;3.05;;;;;;;15.27;65.02;96382.63;6124307;23;20883;-86
2021/10/19 13:44:44;;;;;;;5.90;2.30;;;;;;;15.35;68.96;96379.13;6122619;23;20199;-84
2021/10/19 13:47:11;;;;;;;5.38;2.60;;;;;;;15.44;69.35;96371.00;6123690;23;20175;-84
2021/10/19 13:49:37;;;;;;;3.38;2.30;;;;;;;15.59;68.82;96372.78;6123757;23;20183;-84
2021/10/19 13:52:04;;;;;;;3.22;2.50;;;;;;;15.68;67.41;96379.41;6123937;23;20645;-85
2021/10/19 13:54:35;;;;;;;5.38;2.47;;;;;;;15.80;67.83;96385.69;6123469;23;20213;-85
2021/10/19 13:57:02;;;;;;;5.97;2.40;;;;;;;15.88;67.71;96383.75;6123881;23;20223;-85
2021/10/19 13:59:28;;;;;;;3.97;2.33;;;;;;;15.98;66.79;96388.59;6123435;23;20206;-84
2021/10/19 14:01:55;;;;;;;5.28;2.58;;;;;;;16.02;66.41;96379.44;6123769;23;20175;-85
2021/10/19 14:04:22;;;;;;;4.97;2.75;;;;;;;16.08;65.96;96380.50;6123065;23;20226;-85
2021/10/19 14:06:48;;;;;;;6.43;2.58;;;;;;;16.09;65.44;96369.09;6123258;23;20176;-85
2021/10/19 14:09:14;;;;;;;3.45;2.47;;;;;;;16.12;65.06;96364.34;6122672;23;20234;-85
2021/10/19 14:11:42;;;;;;;4.90;2.50;;;;;;;16.13;63.50;96363.34;6123207;23;20187;-85
2021/10/19 14:14:11;;;;;;;2.65;2.40;;;;;;;16.10;62.61;96365.50;6122854;23;20207;-85
2021/10/19 14:16:38;;;;;;;4.75;2.85;;;;;;;16.14;63.24;96362.34;6122956;23;20258;-84
2021/10/19 14:19:05;;;;;;;3.22;2.50;;;;;;;16.09;60.46;96349.13;6123561;23;20662;-86
2021/10/19 14:21:32;;;;;;;2.80;2.60;;;;;;;16.00;60.36;96358.03;6123201;23;20179;-86
2021/10/19 14:23:59;;;;;;;2.60;2.40;;;;;;;15.88;59.81;96357.78;6123158;23;20200;-86
2021/10/19 14:26:26;;;;;;;2.50;2.30;;;;;;;15.82;60.76;96361.13;6130243;23;20186;-88
2021/10/19 14:29:11;;;;;;;;;;;;;;;;;;;;;
2021/10/19 14:31:38;;;;;;;4.28;2.58;;;;;;;15.74;60.97;96365.69;6127509;23;20167;-84
2021/10/19 14:34:05;;;;;;;2.60;2.40;;;;;;;15.64;61.41;96360.81;6123330;23;20199;-83
2021/10/19 14:36:31;;;;;;;4.65;2.47;;;;;;;15.56;61.30;96352.38;6117495;23;20266;-83
2021/10/19 14:38:58;;;;;;;3.83;2.90;;;;;;;15.50;61.28;96359.88;6117109;23;20172;-83
2021/10/19 14:41:26;;;;;;;6.47;3.33;;;;;;;15.42;61.52;96354.00;6116604;23;20199;-84
2021/10/19 14:43:54;;;;;;;3.58;2.97;;;;;;;15.36;61.19;96358.19;6115282;23;20196;-85
2021/10/19 14:46:20;;;;;;;3.35;2.90;;;;;;;15.39;61.78;96354.41;6115997;23;20182;-85
2021/10/19 14:48:49;;;;;;;3.30;3.00;;;;;;;15.41;62.17;96365.38;6115317;23;20650;-85
2021/10/19 14:51:15;;;;;;;3.20;2.90;;;;;;;15.40;62.06;96364.56;6115343;23;20187;-86
2021/10/19 14:53:42;;;;;;;6.53;3.10;;;;;;;15.39;62.52;96357.00;6116453;23;20256;-87
2021/10/19 14:56:08;;;;;;;4.53;2.80;;;;;;;15.42;63.07;96367.78;6116744;23;20176;-86
2021/10/19 14:58:35;;;;;;;3.47;2.55;;;;;;;15.41;62.98;96373.16;6122745;23;20175;-88
2021/10/19 15:14:34;;;;;;;6.78;3.00;;;;;;;15.28;63.90;96347.91;6118219;23;20214;-85
2021/10/19 15:17:01;;;;;;;5.83;3.07;;;;;;;15.29;64.16;96341.75;6121348;23;20568;-84
2021/10/19 15:19:27;;;;;;;5.50;3.10;;;;;;;15.30;63.94;96350.34;6121078;23;20198;-84
2021/10/19 15:21:55;;;;;;;3.35;2.95;;;;;;;15.29;63.96;96344.34;6121592;23;20171;-84
2021/10/19 15:24:25;;;;;;;5.18;3.10;;;;;;;15.29;64.20;96341.75;6120690;23;20191;-84
2021/10/19 15:26:52;;;;;;;4.97;2.93;;;;;;;15.28;64.33;96336.75;6121357;23;20175;-85
2021/10/19 15:29:26;;;;;;;5.30;3.40;;;;;;;15.26;64.20;96347.31;6120845;23;20567;-86
2021/10/19 15:31:55;;;;;;;4.95;3.05;;;;;;;15.26;64.00;96349.91;6121836;23;20179;-85
2021/10/19 15:41:04;;;;;;;2.90;2.60;;;;;;;15.21;63.40;96319.31;6014436;23;20204;-85
2021/10/19 15:53:14;;;;;;;3.83;2.40;;;;;;;15.26;62.44;96315.38;6026182;23;20256;-85
2021/10/19 16:03:17;;;;;;;4.30;2.80;;;;;;;15.27;62.74;96329.94;5942329;24;20258;-85
2021/10/19 16:05:46;;;;;;;2.83;2.40;;;;;;;15.28;62.70;96331.56;6078201;23;20184;-85
2021/10/19 16:09:03;;;;;;;5.07;2.70;;;;;;;15.27;63.01;96324.75;6121279;23;20243;-84
2021/10/19 16:11:32;;;;;;;3.40;2.38;;;;;;;15.28;63.41;96332.34;6052687;23;20191;-85
2021/10/19 16:14:53;;;;;;;3.03;2.60;;;;;;;15.25;63.78;96337.91;6120380;23;20660;-85
2021/10/19 16:24:23;;;;;;;3.73;2.70;;;;;;;15.20;64.54;96348.06;5885239;23;20233;-84
2021/10/19 16:27:42;;;;;;;4.60;2.92;;;;;;;15.14;65.07;96362.56;6030744;23;20166;-86
2021/10/19 16:30:19;;;;;;;5.55;3.10;;;;;;;15.13;65.48;96362.75;6029711;23;20174;-86
2021/10/19 16:32:52;;;;;;;3.27;2.77;;;;;;;15.05;65.55;96348.09;6112936;23;20230;-85
2021/10/19 16:35:38;;;;;;;;;;;;;;;;;;;;;
2021/10/19 16:38:15;;;;;;;2.70;2.43;;;;;;;15.00;64.91;96353.06;6120093;23;20242;-85
2021/10/19 16:40:51;;;;;;;2.10;1.90;;;;;;;15.00;64.34;96355.66;6121068;23;20195;-86
2021/10/19 16:43:23;;;;;;;2.77;1.90;;;;;;;15.05;64.83;96350.72;6122421;23;20183;-85
2021/10/19 16:45:50;;;;;;;1.40;1.30;;;;;;;15.05;65.13;96350.72;6122133;23;20660;-85
2021/10/19 16:48:22;;;;;;;1.53;1.43;;;;;;;15.08;65.15;96350.34;6122641;23;20178;-85
2021/10/19 16:53:34;;;;;;;8.27;1.50;;;;;;;15.12;64.51;96333.41;6094830;23;20255;-85
2021/10/19 16:56:01;;;;;;;2.92;1.40;;;;;;;15.16;65.04;96331.25;6123112;23;20176;-85
2021/10/19 16:58:27;;;;;;;1.50;1.40;;;;;;;15.17;64.91;96331.09;6123041;23;20179;-86
2021/10/19 17:00:57;;;;;;;2.30;1.52;;;;;;;15.18;64.98;96330.09;6122984;23;20524;-86
2021/10/19 17:03:30;;;;;;;1.63;1.40;;;;;;;15.16;65.61;96324.28;6122587;23;20164;-86
2021/10/19 17:06:17;;;;;;;1.60;1.50;;;;;;;15.14;66.62;96321.06;6122772;23;20176;-85
2021/10/19 17:15:14;;;;;;;1.47;1.37;;;;;;;14.99;67.01;96314.34;6087939;23;20202;-84
2021/10/19 17:17:43;;;;;;;1.83;1.30;;;;;;;14.93;66.36;96309.91;6080884;23;20180;-85
2021/10/19 17:20:10;;;;;;;2.33;1.23;;;;;;;14.96;66.41;96299.16;6122116;23;20202;-85
2021/10/19 17:22:40;;;;;;;1.43;1.33;;;;;;;14.92;66.29;96301.31;6122866;23;20178;-85
2021/10/19 17:25:48;;;;;;;2.00;1.63;;;;;;;14.96;66.30;96294.78;6120251;23;20888;-84
2021/10/19 17:28:15;;;;;;;2.27;1.33;;;;;;;14.96;67.15;96302.56;6122478;23;20183;-86
2021/10/19 17:30:41;;;;;;;1.50;1.40;;;;;;;14.91;66.75;96296.31;6122845;23;20171;-86
2021/10/19 17:33:08;;;;;;;2.73;1.37;;;;;;;14.93;66.61;96291.75;6122419;23;20230;-86
2021/10/19 17:35:34;;;;;;;1.47;1.37;;;;;;;14.93;66.34;96289.97;6121692;23;20203;-84